createdAt,value
2019-06-10T00:01:31.461Z,5.55
2019-06-10T00:06:37.511Z,5.12
2019-06-10T00:11:43.572Z,5.12
2019-06-10T00:16:50.821Z,5.67
2019-06-10T00:21:57.400Z,5.37
2019-06-10T00:27:05.498Z,5.30
2019-06-10T00:32:12.718Z,5.00
2019-06-10T00:37:16.824Z,5.00
2019-06-10T00:42:23.173Z,7.67
2019-06-10T00:47:30.790Z,5.17
2019-06-10T00:52:35.703Z,5.00
2019-06-10T00:57:41.817Z,5.28
2019-06-10T01:02:48.049Z,4.20
2019-06-10T01:07:53.311Z,7.25
2019-06-10T01:13:00.838Z,6.20
2019-06-10T01:18:07.564Z,5.20
2019-06-10T01:23:15.599Z,4.15
2019-06-10T01:28:21.998Z,13.78
2019-06-10T01:33:27.838Z,4.90
2019-06-10T01:38:33.142Z,7.72
2019-06-10T01:43:40.650Z,4.53
2019-06-10T01:48:48.220Z,8.15
2019-06-10T01:53:52.263Z,6.47
2019-06-10T01:58:57.509Z,9.20
2019-06-10T02:04:02.790Z,6.70
2019-06-10T02:09:09.675Z,6.10
2019-06-10T02:14:17.860Z,9.08
2019-06-10T02:19:23.014Z,7.50
2019-06-10T02:24:31.314Z,7.90
2019-06-10T02:29:35.920Z,6.83
2019-06-10T02:35:00.882Z,8.85
2019-06-10T02:39:48.445Z,7.80
2019-06-10T02:44:54.238Z,6.70
2019-06-10T02:50:04.551Z,6.30
2019-06-10T02:55:07.266Z,4.78
2019-06-10T03:00:20.875Z,8.70
2019-06-10T03:05:24.961Z,6.20
2019-06-10T03:10:31.053Z,8.08
2019-06-10T03:15:36.120Z,8.88
2019-06-10T03:20:42.616Z,9.88
2019-06-10T03:25:59.027Z,7.12
2019-06-10T03:31:06.193Z,8.85
2019-06-10T03:36:13.313Z,8.75
2019-06-10T03:41:18.876Z,8.15
2019-06-10T03:46:26.906Z,9.95
2019-06-10T03:51:33.333Z,7.87
2019-06-10T03:56:39.576Z,10.30
2019-06-10T04:01:47.306Z,8.20
2019-06-10T04:06:53.368Z,9.23
2019-06-10T04:11:58.748Z,7.60
2019-06-10T04:17:04.555Z,6.90
2019-06-10T04:22:12.936Z,10.50
2019-06-10T04:27:17.786Z,11.80
2019-06-10T04:32:24.556Z,8.93
2019-06-10T04:37:32.327Z,7.45
2019-06-10T04:42:37.271Z,7.33
2019-06-10T04:47:43.259Z,7.25
2019-06-10T04:52:49.359Z,9.58
2019-06-10T04:57:55.620Z,9.05
2019-06-10T05:03:02.900Z,5.35
2019-06-10T05:08:08.186Z,7.83
2019-06-10T05:13:15.537Z,6.42
2019-06-10T05:18:25.122Z,6.87
2019-06-10T05:23:32.972Z,7.85
2019-06-10T05:28:37.914Z,6.90
2019-06-10T05:33:43.319Z,6.53
2019-06-10T05:38:48.807Z,6.67
2019-06-10T05:43:54.260Z,7.67
2019-06-10T05:48:59.742Z,6.53
2019-06-10T05:54:05.514Z,6.58
2019-06-10T05:59:12.067Z,8.18
2019-06-10T06:04:17.434Z,7.10
2019-06-10T06:09:25.124Z,8.40
2019-06-10T06:14:32.230Z,8.10
2019-06-10T06:19:38.870Z,8.05
2019-06-10T06:24:44.204Z,8.80
2019-06-10T06:29:52.326Z,7.87
2019-06-10T06:34:56.971Z,8.10
2019-06-10T06:40:02.920Z,6.83
2019-06-10T06:45:09.198Z,8.13
2019-06-10T06:50:14.674Z,6.55
2019-06-10T06:55:19.913Z,8.48
2019-06-10T07:00:53.051Z,7.50
2019-06-10T07:05:43.444Z,7.97
2019-06-10T07:10:49.103Z,5.60
2019-06-10T07:15:54.388Z,6.70
2019-06-10T07:21:02.683Z,8.48
2019-06-10T07:26:07.999Z,6.50
2019-06-10T07:31:23.204Z,9.40
2019-06-10T07:36:23.319Z,6.12
2019-06-10T07:41:27.781Z,5.28
2019-06-10T07:46:36.053Z,5.70
2019-06-10T07:51:42.128Z,5.85
2019-06-10T07:56:50.514Z,6.85
2019-06-10T08:01:55.354Z,5.10
2019-06-10T08:07:03.183Z,4.58
2019-06-10T08:12:08.081Z,6.12
2019-06-10T08:17:14.414Z,5.22
2019-06-10T08:22:31.240Z,5.37
2019-06-10T08:27:27.589Z,10.60
2019-06-10T08:32:33.553Z,4.55
2019-06-10T08:37:40.778Z,6.45
2019-06-10T08:42:47.336Z,4.55
2019-06-10T08:47:54.183Z,4.05
2019-06-10T08:53:10.325Z,4.78
2019-06-10T08:58:06.992Z,5.45
2019-06-10T09:03:12.695Z,5.22
2019-06-10T09:08:18.441Z,4.50
2019-06-10T09:13:23.739Z,3.35
2019-06-10T09:18:29.791Z,2.72
2019-06-10T09:23:35.041Z,3.58
2019-06-10T09:28:41.534Z,5.00
2019-06-10T09:33:50.854Z,3.65
2019-06-10T09:38:55.662Z,3.25
2019-06-10T09:44:03.206Z,3.70
2019-06-10T09:49:08.490Z,3.37
2019-06-10T09:54:15.345Z,4.35
2019-06-10T09:59:23.467Z,5.72
2019-06-10T10:04:28.659Z,3.87
2019-06-10T10:09:36.983Z,4.05
2019-06-10T10:14:44.777Z,3.45
2019-06-10T10:19:50.340Z,3.50
2019-06-10T10:24:56.995Z,5.25
2019-06-10T10:30:03.853Z,5.72
2019-06-10T10:35:09.367Z,3.85
2019-06-10T10:40:14.753Z,4.60
2019-06-10T10:45:22.675Z,3.30
2019-06-10T10:50:28.321Z,4.92
2019-06-10T10:55:33.534Z,7.37
2019-06-10T11:00:49.263Z,5.40
2019-06-10T11:06:00.525Z,3.77
2019-06-10T11:11:05.154Z,3.20
2019-06-10T11:16:10.681Z,3.55
2019-06-10T11:21:16.002Z,3.30
2019-06-10T11:26:22.822Z,5.65
2019-06-10T11:31:28.264Z,3.77
2019-06-10T11:36:33.510Z,2.95
2019-06-10T11:41:39.275Z,4.10
2019-06-10T11:46:44.541Z,2.98
2019-06-10T11:51:52.637Z,3.33
2019-06-10T11:56:58.571Z,3.83
2019-06-10T12:02:06.065Z,2.40
2019-06-10T12:07:12.925Z,4.30
2019-06-10T12:12:17.906Z,4.03
2019-06-10T12:17:40.946Z,4.10
2019-06-10T12:22:32.954Z,3.65
2019-06-10T12:27:37.704Z,3.50
2019-06-10T12:32:43.826Z,4.47
2019-06-10T12:37:49.448Z,2.95
2019-06-10T12:42:57.752Z,3.95
2019-06-10T12:48:06.283Z,5.72
2019-06-10T12:53:12.497Z,5.17
2019-06-10T12:58:17.565Z,3.35
2019-06-10T13:03:23.638Z,6.00
2019-06-10T13:08:33.045Z,3.85
2019-06-10T13:13:38.131Z,4.20
2019-06-10T13:18:43.691Z,3.05
2019-06-10T13:23:48.950Z,4.62
2019-06-10T13:28:54.271Z,4.15
2019-06-10T13:34:05.125Z,2.58
2019-06-10T13:39:10.467Z,5.70
2019-06-10T13:44:16.977Z,4.55
2019-06-10T13:49:25.463Z,4.97
2019-06-10T13:54:30.035Z,3.60
2019-06-10T13:59:35.294Z,5.85
2019-06-10T14:04:42.367Z,3.02
2019-06-10T14:09:47.781Z,3.72
2019-06-10T14:14:54.555Z,6.08
2019-06-10T14:20:00.167Z,4.37
2019-06-10T14:25:11.421Z,3.65
2019-06-10T14:30:17.184Z,4.70
2019-06-10T14:35:22.789Z,5.12
2019-06-10T14:40:32.293Z,4.03
2019-06-10T14:45:37.025Z,6.10
2019-06-10T14:50:43.432Z,3.17
2019-06-10T14:55:48.965Z,4.62
2019-06-10T15:00:54.801Z,4.58
2019-06-10T15:06:02.910Z,3.85
2019-06-10T15:11:07.616Z,6.40
2019-06-10T15:16:14.276Z,5.12
2019-06-10T15:21:19.560Z,4.47
2019-06-10T15:26:26.005Z,4.00
2019-06-10T15:31:31.309Z,3.10
2019-06-10T15:36:36.575Z,3.55
2019-06-10T15:41:43.019Z,3.72
2019-06-10T15:46:48.524Z,4.97
2019-06-10T15:51:55.022Z,4.15
2019-06-10T15:57:02.985Z,4.25
2019-06-10T16:02:08.391Z,7.62
2019-06-10T16:07:15.898Z,4.35
2019-06-10T16:12:24.912Z,6.72
2019-06-10T16:17:30.019Z,4.20
2019-06-10T16:22:35.288Z,4.25
2019-06-10T16:27:48.510Z,5.28
2019-06-10T16:32:47.482Z,4.12
2019-06-10T16:37:56.542Z,4.65
2019-06-10T16:43:00.057Z,6.62
2019-06-10T16:48:05.857Z,5.25
2019-06-10T16:53:13.446Z,4.35
2019-06-10T16:58:18.359Z,5.28
2019-06-10T17:03:26.750Z,7.03
2019-06-10T17:08:33.504Z,4.60
2019-06-10T17:13:38.218Z,4.42
2019-06-10T17:18:44.318Z,3.55
2019-06-10T17:23:52.434Z,3.00
2019-06-10T17:28:57.961Z,3.95
2019-06-10T17:34:03.502Z,5.37
2019-06-10T17:39:09.736Z,5.72
2019-06-10T17:44:15.007Z,3.87
2019-06-10T17:49:22.606Z,6.17
2019-06-10T17:54:28.282Z,11.15
2019-06-10T17:59:35.373Z,5.62
2019-06-10T18:04:42.090Z,14.68
2019-06-10T18:09:47.477Z,14.23
2019-06-10T18:14:52.732Z,5.80
2019-06-10T18:19:57.980Z,6.65
2019-06-10T18:25:03.309Z,7.83
2019-06-10T18:30:13.306Z,6.20
2019-06-10T18:35:17.882Z,7.92
2019-06-10T18:40:23.537Z,6.95
2019-06-10T18:45:29.807Z,7.22
2019-06-10T18:50:36.704Z,5.92
2019-06-10T18:55:43.761Z,6.83
2019-06-10T19:00:59.157Z,5.92
2019-06-10T19:05:56.073Z,5.87
2019-06-10T19:11:02.381Z,5.30
2019-06-10T19:16:07.854Z,4.85
2019-06-10T19:21:13.343Z,8.20
2019-06-10T19:26:18.676Z,6.62
2019-06-10T19:31:24.916Z,5.78
2019-06-10T19:36:31.492Z,7.67
2019-06-10T19:41:38.749Z,6.08
2019-06-10T19:46:44.076Z,7.35
2019-06-10T19:51:49.255Z,6.30
2019-06-10T19:56:54.572Z,6.25
2019-06-10T20:01:59.822Z,8.00
2019-06-10T20:07:05.161Z,6.00
2019-06-10T20:12:12.491Z,6.78
2019-06-10T20:17:17.781Z,5.92
2019-06-10T20:22:23.200Z,7.12
2019-06-10T20:27:28.449Z,7.35
2019-06-10T20:32:33.824Z,8.93
2019-06-10T20:37:39.602Z,6.35
2019-06-10T20:42:44.972Z,5.60
2019-06-10T20:47:53.090Z,6.28
2019-06-10T20:53:11.084Z,8.13
2019-06-10T20:58:07.324Z,7.42
2019-06-10T21:03:11.337Z,8.63
2019-06-10T21:08:16.954Z,11.93
2019-06-10T21:13:22.662Z,9.28
2019-06-10T21:18:28.037Z,9.88
2019-06-10T21:23:33.327Z,11.20
2019-06-10T21:28:38.850Z,15.00
2019-06-10T21:33:47.368Z,11.28
2019-06-10T21:38:55.407Z,9.83
2019-06-10T21:43:59.671Z,8.03
2019-06-10T21:49:05.089Z,8.63
2019-06-10T21:54:12.006Z,8.50
2019-06-10T21:59:17.319Z,8.78
2019-06-10T22:04:22.610Z,8.03
2019-06-10T22:09:27.740Z,8.43
2019-06-10T22:14:33.288Z,8.30
2019-06-10T22:19:38.540Z,8.08
2019-06-10T22:24:44.690Z,10.88
2019-06-10T22:29:51.221Z,8.68
2019-06-10T22:34:57.306Z,9.73
2019-06-10T22:40:03.262Z,12.10
2019-06-10T22:45:08.915Z,10.00
2019-06-10T22:50:15.016Z,12.03
2019-06-10T22:55:20.430Z,9.98
2019-06-10T23:00:25.682Z,14.98
2019-06-10T23:05:33.095Z,14.33
2019-06-10T23:10:37.921Z,11.25
2019-06-10T23:15:43.184Z,10.45
2019-06-10T23:20:49.210Z,13.55
2019-06-10T23:25:56.013Z,12.40
2019-06-10T23:31:02.441Z,9.63
2019-06-10T23:36:08.341Z,12.95
2019-06-10T23:41:13.629Z,31.23
2019-06-10T23:46:18.878Z,146.68
2019-06-10T23:51:24.138Z,90.32
2019-06-10T23:56:29.396Z,24.45
